Ghanzi, Botswana
Current Conditions -  °F | °C
As of 10:00 PM on Tuesday 21 Oct 2014 (Local Time) from FBMN Reporting Station
Clear Clear  
Wind Chill: 86°   Ceiling: Unl
Heat Index: 86°   Visibility: 6mi
Dew Point: 30°   Wind: 10mph
Humidity: 13%   Direction: 120°ESE
Pressure: 30.03"   Gusts: NA
Location:  21.7°S, 21.64°E
Report Text: FBMN 212000Z 12009KT CAVOK 30/M01 Q1017
Loading
Personal Weather Stations






























Interactive Weather Map New forecast layout! Learn more

10-Day Weather Forecast

Advertisements
Track Severe Weather on mobile